Aeroporto :
LOGIN :

Iscrizione | Disclaimer

   EN    FR    IT 

 










Sommario :    VFR   VFR Marginale   IFR   IFR Intensivo   IFR Molto Intensivo
Visibilità : 
Base nubi : 
>= 8 km
>= 3000ft
5 / 8 km
1000 / 3000 ft
1500m / 5 km
500 / 1000 ft
800 / 1500m
200 / 500 ft
< 800m
< 200 ft
Simboli :   Temporali  Nebbia  Neve Forte  Precipitazioni Forti  Vento > 20 kt
SIGMETs :   Varie  Temporali  Ghiacco  Turbolenza  Onda orograficha  Ceneri Vulcaniche






- Altitudine del aeroporto : 266 ft
- Codice IATA : NCL


EGNT - Newcastle

ULTIMO METAR :
  • 210750Z VRB01KT 8000 FEW025 00/00 Q1008

METARs OBSOLETI :
  • 210720Z 00000KT 9999 FEW022 01/01 Q1008
  • 210650Z 05001KT 9999 SCT020 BKN031 01/01 Q1008
  • 210620Z VRB01KT 9999 FEW036 02/01 Q1008
  • 210550Z VRB03KT 9999 FEW036 00/M01 Q1008
  • 210520Z VRB02KT 9999 FEW040 02/01 Q1009

TAF TAF EGNT
Valido dal 21 a 06 ore il 22 a 06 ore UTC


210505Z 2106/2206 13006KT 9999 SCT030
PROB30 2106/2110 8000 BKN014
ATIS : +44 191 214 3400



MetMap, La meteo Aeronautica in un colpo d'occhio ! - Copyright ORBIFLY Dicembre 2007 - Disclaimer

ORBIFLY MET'MAP TEAM :

Programmazione e sviluppo : Alexandra Zaïnal
Concezione e sviluppo : Baudouin d'Aumeries
Co-Programmazione e sviluppo : Marc-Olivier Méhu
Supporto tecnico e logistico : Manuel Goepfert
Aiuto per la traduzione : Arnaldo La Scala

Contatto : metmap@orbifly.com




FONTI E CREDITI :

   NOAA